CTM8 weather

Témiscouata-sur-le-Lac Water Aerodrome
Témiscouata-sur-le-Lac, Quebec, Canada

Public forecast

Using degrees Celsius for public forecast. Weather courtesy of forecast.io.

Closest aviation weather report (METAR) to Témiscouata-sur-le-Lac Water Aerodrome

Closest report is Northern Aroostook Regional Airport, 33.1 nm (61.3 km) SE. Retrieved 2019/11/15 08:53 UTC (9 minutes ago):

KFVE 150853Z AUTO 16008KT 10SM BKN050 OVC065 M06/M07 A3002 RMK AO2 SLP180 T10561067 57028

Closest aviation forecast (TAF) to Témiscouata-sur-le-Lac Water Aerodrome

Closest forecast is Northern Aroostook Regional Airport, 33.1 nm (61.3 km) SE. Retrieved 2019/11/15 06:22 UTC (3 hours ago):

TAF KFVE 150520Z 1506/1606 17008KT P6SM SCT025 OVC090 FM151700 23011G20KT P6SM VCSH OVC035 FM152100 26012G22KT 2SM -SHSN OVC020 TEMPO 1521/1524 1/4SM +SHSN VV006 FM160100 29020G30KT 5SM -SHSN OVC030